Time;durP1;ratioP1;P1;durP2;ratioP2;P2;SDS_P1;SDS_P2;PMS_P1;PMS_P2;Temp;Humidity;BMP_temperature;BMP_pressure;BME280_temperature;BME280_humidity;BME280_pressure;Samples;Min_cycle;Max_cycle;Signal;HPM_P1;HPM_P2
2023/10/03 00:01:40;;;;;;;15.45;9.35;;;;;;;15.83;76.06;101024.16;7399622;19;20010;-69
2023/10/03 00:04:12;;;;;;;14.55;8.70;;;;;;;15.78;76.35;101026.97;7399006;19;20027;-69
2023/10/03 00:06:41;;;;;;;18.75;9.32;;;;;;;15.74;76.19;101020.06;7396708;19;20007;-69
2023/10/03 00:09:10;;;;;;;13.70;8.77;;;;;;;15.70;76.02;101015.81;7396791;19;20033;-70
2023/10/03 00:11:39;;;;;;;18.23;8.57;;;;;;;15.66;76.49;101010.72;7396614;19;20011;-69
2023/10/03 00:14:07;;;;;;;13.52;8.68;;;;;;;15.62;76.18;101002.06;7398439;19;20028;-70
2023/10/03 00:16:36;;;;;;;15.25;9.25;;;;;;;15.57;76.49;100993.41;7398277;19;20403;-70
2023/10/03 00:19:04;;;;;;;16.70;9.88;;;;;;;15.53;76.55;100997.97;7396762;19;20022;-73
2023/10/03 00:21:37;;;;;;;16.70;9.05;;;;;;;15.47;76.60;100999.06;7398158;19;20014;-70
2023/10/03 00:24:06;;;;;;;14.85;8.80;;;;;;;15.43;76.92;100992.19;7398035;19;20020;-70
2023/10/03 00:26:35;;;;;;;15.30;8.90;;;;;;;15.39;76.78;100990.56;7398325;19;20014;-70
2023/10/03 00:29:05;;;;;;;13.02;8.70;;;;;;;15.35;77.00;100980.16;7395900;19;20078;-70
2023/10/03 00:31:38;;;;;;;16.83;8.40;;;;;;;15.29;77.13;100965.38;7397979;19;20002;-70
2023/10/03 00:34:07;;;;;;;18.85;8.60;;;;;;;15.27;77.15;100967.25;7398059;19;20017;-70
2023/10/03 00:36:38;;;;;;;14.23;8.60;;;;;;;15.22;77.36;100964.75;7395609;19;20488;-69
2023/10/03 00:39:08;;;;;;;16.20;7.57;;;;;;;15.21;77.23;100959.53;7396039;19;20022;-70
2023/10/03 00:41:37;;;;;;;13.43;8.27;;;;;;;15.17;77.47;100957.94;7397503;19;20010;-70
2023/10/03 00:44:07;;;;;;;17.02;8.15;;;;;;;15.13;77.54;100952.75;7396120;19;20019;-71
2023/10/03 00:46:35;;;;;;;18.70;8.68;;;;;;;15.10;77.33;100965.22;7397733;19;20027;-70
2023/10/03 00:49:09;;;;;;;12.23;7.28;;;;;;;15.05;77.58;100952.19;7395879;19;20022;-71
2023/10/03 00:51:44;;;;;;;15.30;8.05;;;;;;;15.03;77.20;100947.88;7396225;19;20074;-69
2023/10/03 00:54:13;;;;;;;15.45;8.65;;;;;;;15.01;77.27;100949.72;7397124;19;20078;-70
2023/10/03 00:56:45;;;;;;;15.55;7.65;;;;;;;14.98;77.13;100942.75;7395065;19;20024;-70
2023/10/03 00:59:13;;;;;;;13.02;7.38;;;;;;;14.96;77.20;100940.19;7395416;19;20037;-70
2023/10/03 01:01:43;;;;;;;12.70;7.70;;;;;;;14.94;77.12;100930.59;7395864;19;20011;-70
2023/10/03 01:04:19;;;;;;;11.88;7.15;;;;;;;14.93;76.62;100935.00;7396745;19;20413;-70
2023/10/03 01:06:50;;;;;;;14.32;7.80;;;;;;;14.92;76.81;100927.13;7397060;19;20037;-70
2023/10/03 01:09:25;;;;;;;16.63;8.00;;;;;;;14.91;76.72;100921.00;7397344;19;20022;-70
2023/10/03 01:11:54;;;;;;;14.60;7.78;;;;;;;14.89;76.58;100914.91;7395618;19;20018;-70
2023/10/03 01:14:22;;;;;;;18.13;8.68;;;;;;;14.88;76.72;100918.47;7397878;19;20002;-70
2023/10/03 01:16:51;;;;;;;13.35;7.90;;;;;;;14.87;76.59;100913.25;7394752;19;20410;-69
2023/10/03 01:19:24;;;;;;;14.20;7.75;;;;;;;14.87;76.67;100910.59;7396267;19;20507;-69
2023/10/03 01:21:56;;;;;;;17.88;8.43;;;;;;;14.85;76.49;100907.13;7396882;19;20010;-68
2023/10/03 01:24:29;;;;;;;14.00;8.20;;;;;;;14.82;76.78;100901.06;7396496;19;20011;-69
2023/10/03 01:26:58;;;;;;;17.67;7.97;;;;;;;14.82;76.63;100895.78;7396647;19;20029;-69
2023/10/03 01:29:26;;;;;;;15.60;8.40;;;;;;;14.81;76.56;100894.06;7394569;19;20026;-70
2023/10/03 01:31:55;;;;;;;17.27;8.95;;;;;;;14.80;76.68;100888.84;7396228;19;20029;-70
2023/10/03 01:34:24;;;;;;;16.65;8.10;;;;;;;14.79;76.76;100884.47;7396224;19;20028;-70
2023/10/03 01:36:52;;;;;;;20.15;8.80;;;;;;;14.77;76.70;100881.00;7393912;19;20010;-70
2023/10/03 01:39:21;;;;;;;16.25;8.75;;;;;;;14.76;77.00;100874.00;7395545;19;20011;-70
2023/10/03 01:41:54;;;;;;;14.00;7.55;;;;;;;14.76;76.94;100866.09;7396441;19;20014;-70
2023/10/03 01:44:23;;;;;;;18.50;8.63;;;;;;;14.74;77.19;100866.16;7396353;19;20070;-70
2023/10/03 01:46:52;;;;;;;17.83;8.60;;;;;;;14.73;77.36;100853.00;7395652;19;20011;-69
2023/10/03 01:49:22;;;;;;;16.35;8.35;;;;;;;14.74;77.32;100852.94;7395356;19;20481;-70
2023/10/03 01:51:51;;;;;;;17.95;9.38;;;;;;;14.74;77.22;100852.09;7395593;19;20010;-69
2023/10/03 01:54:21;;;;;;;18.90;9.90;;;;;;;14.75;77.34;100840.63;7395806;19;20352;-69
2023/10/03 01:56:49;;;;;;;17.25;9.02;;;;;;;14.76;77.37;100826.47;7393871;19;20446;-69
2023/10/03 01:59:20;;;;;;;17.73;8.88;;;;;;;14.77;77.55;100822.91;7395476;19;20019;-70
2023/10/03 02:01:49;;;;;;;17.48;8.77;;;;;;;14.76;77.41;100824.72;7395828;19;20031;-70
2023/10/03 02:04:17;;;;;;;17.42;9.65;;;;;;;14.77;77.89;100828.19;7394908;19;20019;-70
2023/10/03 02:06:47;;;;;;;16.38;9.50;;;;;;;14.78;77.64;100816.72;7394897;19;20484;-69
2023/10/03 02:09:18;;;;;;;17.08;9.18;;;;;;;14.78;77.85;100814.94;7393408;19;20010;-70
2023/10/03 02:11:46;;;;;;;15.93;9.65;;;;;;;14.80;77.82;100813.09;7394983;19;20029;-70
2023/10/03 02:14:14;;;;;;;18.40;9.40;;;;;;;14.82;77.74;100819.19;7394722;19;20093;-70
2023/10/03 02:16:46;;;;;;;20.92;9.57;;;;;;;14.85;77.86;100819.97;7392924;19;20014;-70
2023/10/03 02:19:14;;;;;;;16.88;10.02;;;;;;;14.85;77.89;100806.78;7393062;19;20023;-71
2023/10/03 02:21:46;;;;;;;22.05;9.80;;;;;;;14.85;77.89;100798.84;7395119;19;20041;-70
2023/10/03 02:24:16;;;;;;;19.23;9.75;;;;;;;14.89;77.72;100803.97;7395296;19;20112;-70
2023/10/03 02:26:45;;;;;;;22.80;10.60;;;;;;;14.90;78.13;100794.25;7392831;19;20014;-70
2023/10/03 02:29:13;;;;;;;21.05;10.00;;;;;;;14.92;77.71;100790.63;7392043;19;20392;-70
2023/10/03 02:31:42;;;;;;;20.83;9.75;;;;;;;14.94;77.95;100783.50;7394578;19;20033;-70
2023/10/03 02:34:14;;;;;;;21.50;10.32;;;;;;;14.95;77.89;100782.59;7394572;19;20018;-69
2023/10/03 02:36:44;;;;;;;19.65;8.95;;;;;;;14.97;77.82;100779.88;7393353;19;20014;-69
2023/10/03 02:39:13;;;;;;;18.58;9.57;;;;;;;14.97;77.72;100769.31;7391984;19;20369;-70
2023/10/03 02:41:42;;;;;;;18.70;9.95;;;;;;;15.00;77.91;100771.84;7392795;19;20007;-70
2023/10/03 02:44:10;;;;;;;19.40;10.48;;;;;;;15.02;77.64;100763.84;7391858;19;20365;-70
2023/10/03 02:46:38;;;;;;;22.20;11.05;;;;;;;15.04;77.80;100757.59;7393784;19;20017;-70
2023/10/03 02:49:08;;;;;;;22.77;11.27;;;;;;;15.04;77.57;100747.03;7392134;19;20014;-70
2023/10/03 02:51:41;;;;;;;19.58;10.00;;;;;;;15.08;77.36;100739.84;7394060;19;20010;-71
2023/10/03 02:54:10;;;;;;;20.10;10.88;;;;;;;15.10;77.61;100730.03;7394398;19;20010;-70
2023/10/03 02:56:38;;;;;;;20.45;10.48;;;;;;;15.11;77.66;100727.38;7392049;19;20017;-69
2023/10/03 02:59:07;;;;;;;20.38;10.48;;;;;;;15.11;77.59;100722.09;7391778;19;20022;-69
2023/10/03 03:01:37;;;;;;;23.10;10.88;;;;;;;15.14;77.34;100719.28;7393705;19;20014;-70
2023/10/03 03:04:17;;;;;;;19.98;10.40;;;;;;;15.15;77.34;100718.38;7393987;19;20010;-69
2023/10/03 03:06:51;;;;;;;21.27;10.73;;;;;;;15.17;77.24;100715.66;7396652;19;20002;-70
2023/10/03 03:09:23;;;;;;;19.55;10.48;;;;;;;15.20;77.28;100719.97;7398832;19;20015;-70
2023/10/03 03:11:50;;;;;;;19.88;11.40;;;;;;;15.22;77.33;100718.13;7400378;19;20007;-70
2023/10/03 03:14:19;;;;;;;21.08;9.95;;;;;;;15.21;77.29;100708.47;7400726;19;20057;-70
2023/10/03 03:16:54;;;;;;;22.35;11.43;;;;;;;15.24;77.18;100706.56;7398407;19;20074;-70
2023/10/03 03:19:23;;;;;;;23.15;10.18;;;;;;;15.26;76.81;100695.94;7400327;19;20010;-69
2023/10/03 03:21:57;;;;;;;22.52;10.35;;;;;;;15.27;76.86;100698.50;7400526;19;20014;-70
2023/10/03 03:24:33;;;;;;;21.23;10.20;;;;;;;15.29;76.59;100695.78;7401010;19;20021;-69
2023/10/03 03:27:11;;;;;;;21.30;10.07;;;;;;;15.31;76.76;100696.59;7399826;19;20028;-69
2023/10/03 03:29:57;;;;;;;25.05;11.43;;;;;;;15.33;76.52;100697.41;7398429;19;20028;-71
2023/10/03 03:32:27;;;;;;;22.00;10.93;;;;;;;15.35;76.52;100687.59;7399673;19;20427;-70
2023/10/03 03:34:56;;;;;;;22.13;10.60;;;;;;;15.38;76.43;100687.47;7399760;19;20495;-70
2023/10/03 03:37:37;;;;;;;24.90;11.63;;;;;;;15.40;75.99;100671.56;7397730;19;20015;-69
2023/10/03 03:40:10;;;;;;;22.38;10.98;;;;;;;15.43;75.95;100667.00;7398094;19;20018;-70
2023/10/03 03:42:39;;;;;;;22.33;11.30;;;;;;;15.45;75.79;100659.00;7400319;19;20007;-69
2023/10/03 03:45:10;;;;;;;22.52;10.65;;;;;;;15.49;75.96;100657.91;7399840;19;20027;-69
2023/10/03 03:47:39;;;;;;;21.25;10.63;;;;;;;15.52;75.75;100651.63;7398484;19;20037;-69
2023/10/03 03:50:16;;;;;;;23.80;11.50;;;;;;;15.55;75.58;100651.53;7399220;19;20013;-69
2023/10/03 03:52:48;;;;;;;21.98;11.10;;;;;;;15.56;75.58;100650.59;7396795;19;20369;-71
2023/10/03 03:55:17;;;;;;;24.27;11.80;;;;;;;15.58;75.32;100643.44;7399816;19;20014;-69
2023/10/03 03:57:46;;;;;;;21.38;10.40;;;;;;;15.58;75.12;100646.97;7398392;19;20023;-70
2023/10/03 04:00:22;;;;;;;19.70;10.05;;;;;;;15.60;75.38;100642.44;7399284;19;20011;-69
2023/10/03 04:02:50;;;;;;;21.17;10.57;;;;;;;15.63;75.21;100644.09;7396667;19;20503;-70
2023/10/03 04:05:20;;;;;;;21.23;10.70;;;;;;;15.66;74.71;100643.97;7399098;19;20028;-70
2023/10/03 04:07:52;;;;;;;18.20;9.23;;;;;;;15.69;74.83;100638.53;7398007;19;20018;-70
2023/10/03 04:10:21;;;;;;;20.38;11.73;;;;;;;15.71;74.63;100636.69;7397705;19;20010;-69
2023/10/03 04:12:50;;;;;;;19.27;9.32;;;;;;;15.72;74.52;100629.59;7398440;19;20071;-70
2023/10/03 04:15:20;;;;;;;19.00;9.75;;;;;;;15.74;74.40;100625.09;7398629;19;20086;-69
2023/10/03 04:17:51;;;;;;;24.27;11.20;;;;;;;15.76;74.22;100629.41;7393251;19;20077;-71
2023/10/03 04:20:30;;;;;;;20.25;10.35;;;;;;;15.77;74.19;100620.53;7398858;19;20028;-69
2023/10/03 04:23:03;;;;;;;21.67;11.43;;;;;;;15.83;74.00;100623.88;7396629;19;20014;-70
2023/10/03 04:25:33;;;;;;;23.17;10.85;;;;;;;15.85;73.97;100617.56;7398713;19;20010;-70
2023/10/03 04:28:04;;;;;;;23.58;10.27;;;;;;;15.87;73.64;100605.16;7396863;19;20010;-70
2023/10/03 04:30:32;;;;;;;24.05;10.93;;;;;;;15.92;73.24;100603.16;7396237;19;20014;-71
2023/10/03 04:33:02;;;;;;;22.27;10.38;;;;;;;15.96;73.15;100598.53;7397601;19;20347;-70
2023/10/03 04:35:30;;;;;;;20.40;10.60;;;;;;;16.00;72.88;100589.56;7397732;19;20045;-70
2023/10/03 04:38:04;;;;;;;21.60;10.48;;;;;;;16.04;72.64;100592.91;7395719;19;20010;-70
2023/10/03 04:40:36;;;;;;;22.15;11.40;;;;;;;16.07;72.47;100590.13;7398217;19;20014;-70
2023/10/03 04:43:11;;;;;;;20.05;10.25;;;;;;;16.08;72.69;100584.75;7398266;19;20032;-70
2023/10/03 04:45:39;;;;;;;21.02;10.35;;;;;;;16.11;72.26;100587.25;7397798;19;20018;-70
2023/10/03 04:48:10;;;;;;;20.38;10.60;;;;;;;16.14;72.29;100575.66;7396590;19;20031;-71
2023/10/03 04:50:40;;;;;;;21.50;10.55;;;;;;;16.17;72.18;100566.72;7397799;19;20011;-69
2023/10/03 04:53:14;;;;;;;19.85;10.57;;;;;;;16.18;71.96;100577.22;7396539;19;20017;-71
2023/10/03 04:55:47;;;;;;;;;;;;;;;16.19;71.57;100580.72;7397387;19;20481;-70
2023/10/03 04:58:15;;;;;;;19.00;9.77;;;;;;;16.18;71.82;100561.34;7395884;19;19918;-69
2023/10/03 05:00:45;;;;;;;22.10;10.80;;;;;;;16.18;71.56;100557.84;7396274;19;20406;-69
2023/10/03 05:03:14;;;;;;;19.40;9.48;;;;;;;16.20;71.27;100555.97;7394770;19;20018;-69
2023/10/03 05:05:44;;;;;;;22.75;9.70;;;;;;;16.19;71.31;100555.13;7396450;19;20014;-70
2023/10/03 05:08:15;;;;;;;17.73;9.13;;;;;;;16.19;71.37;100546.31;7395551;19;20014;-70
2023/10/03 05:10:44;;;;;;;19.38;9.75;;;;;;;16.20;71.16;100540.97;7396877;19;20014;-70
2023/10/03 05:13:13;;;;;;;21.63;10.57;;;;;;;16.22;71.05;100540.88;7394834;19;20035;-70
2023/10/03 05:15:41;;;;;;;23.25;9.93;;;;;;;16.22;70.96;100548.81;7396727;19;20375;-69
2023/10/03 05:18:09;;;;;;;20.73;9.93;;;;;;;16.25;70.91;100541.59;7394702;19;20023;-70
2023/10/03 05:20:38;;;;;;;24.52;10.13;;;;;;;16.27;70.38;100534.44;7396130;19;20473;-70
2023/10/03 05:23:06;;;;;;;22.52;11.45;;;;;;;16.31;70.90;100534.28;7394941;19;20081;-70
2023/10/03 05:25:42;;;;;;;20.55;10.75;;;;;;;16.33;70.57;100537.69;7396391;19;20018;-70
2023/10/03 05:28:11;;;;;;;23.30;10.55;;;;;;;16.33;70.55;100528.00;7394865;19;20015;-71
2023/10/03 05:30:40;;;;;;;20.55;10.10;;;;;;;16.36;70.47;100526.97;7394029;19;20021;-69
2023/10/03 05:33:09;;;;;;;19.85;9.35;;;;;;;16.37;70.13;100515.47;7395897;19;20006;-70
2023/10/03 05:35:38;;;;;;;20.48;10.23;;;;;;;16.39;70.05;100509.16;7396150;19;20019;-70
2023/10/03 05:38:09;;;;;;;22.13;9.88;;;;;;;16.42;69.93;100505.50;7394358;19;20080;-70
2023/10/03 05:40:40;;;;;;;23.80;10.30;;;;;;;16.44;69.58;100495.66;7394105;19;20347;-70
2023/10/03 05:43:11;;;;;;;25.77;10.63;;;;;;;16.48;69.36;100499.91;7395872;19;20018;-70
2023/10/03 05:45:40;;;;;;;23.10;10.65;;;;;;;16.51;69.73;100499.72;7395825;19;20086;-70
2023/10/03 05:48:10;;;;;;;18.67;9.35;;;;;;;16.53;69.49;100508.47;7393798;19;20027;-70
2023/10/03 05:50:38;;;;;;;22.60;10.18;;;;;;;16.57;69.49;100509.16;7395063;19;20369;-70
2023/10/03 05:53:09;;;;;;;25.10;10.95;;;;;;;16.60;68.86;100503.69;7395211;19;20372;-70
2023/10/03 05:55:40;;;;;;;21.17;10.93;;;;;;;16.64;68.93;100501.75;7395942;19;20381;-69
2023/10/03 05:58:10;;;;;;;22.35;11.50;;;;;;;16.67;68.99;100506.88;7393291;19;20544;-70
2023/10/03 06:00:39;;;;;;;22.88;10.50;;;;;;;16.70;68.69;100502.28;7395288;19;20007;-70
2023/10/03 06:03:09;;;;;;;23.65;10.65;;;;;;;16.74;68.68;100500.34;7395306;19;20018;-70
2023/10/03 06:05:37;;;;;;;22.42;9.93;;;;;;;16.77;68.51;100510.81;7395238;19;20014;-69
2023/10/03 06:08:06;;;;;;;20.75;11.00;;;;;;;16.80;68.67;100497.38;7394321;19;20031;-71
2023/10/03 06:10:35;;;;;;;21.58;10.95;;;;;;;16.84;68.55;100492.78;7395099;19;20070;-70
2023/10/03 06:13:09;;;;;;;21.88;10.77;;;;;;;16.86;68.35;100491.78;7394661;19;20477;-70
2023/10/03 06:15:37;;;;;;;;;;;;;;;16.89;68.35;100496.91;7395709;19;20352;-70
2023/10/03 06:18:07;;;;;;;22.85;11.57;;;;;;;16.92;68.13;100482.66;7393324;19;20296;-70
2023/10/03 06:20:36;;;;;;;24.75;10.93;;;;;;;16.98;68.39;100481.50;7392960;19;20011;-70
2023/10/03 06:23:04;;;;;;;26.58;11.35;;;;;;;17.01;68.19;100487.50;7394463;19;20041;-71
2023/10/03 06:25:33;;;;;;;23.20;11.52;;;;;;;17.04;67.85;100482.03;7394261;19;20021;-69
2023/10/03 06:28:02;;;;;;;24.90;11.27;;;;;;;17.07;67.73;100481.88;7392840;19;20021;-68
2023/10/03 06:30:33;;;;;;;25.02;11.40;;;;;;;17.12;67.99;100480.75;7392317;19;20014;-69
2023/10/03 06:33:03;;;;;;;25.83;11.00;;;;;;;17.15;67.80;100484.13;7394699;19;20031;-70
2023/10/03 06:35:32;;;;;;;25.20;11.98;;;;;;;17.19;67.89;100483.00;7393976;19;20488;-70
2023/10/03 06:38:00;;;;;;;22.65;11.00;;;;;;;17.21;67.80;100490.88;7391974;19;20473;-70
2023/10/03 06:40:29;;;;;;;24.63;12.57;;;;;;;17.24;67.49;100483.59;7393811;19;20505;-70
2023/10/03 06:42:57;;;;;;;25.45;12.05;;;;;;;17.26;67.82;100476.44;7400642;19;20361;-69
2023/10/03 06:45:26;;;;;;;26.58;13.23;;;;;;;17.30;67.73;100482.44;7398623;19;20006;-70
2023/10/03 06:48:02;;;;;;;22.50;11.70;;;;;;;17.32;67.75;100490.31;7399961;19;20473;-70
2023/10/03 06:50:31;;;;;;;24.30;11.23;;;;;;;17.34;67.68;100476.03;7401342;19;20427;-70
2023/10/03 06:53:01;;;;;;;27.17;11.85;;;;;;;17.38;67.42;100474.06;7400405;19;20024;-69
2023/10/03 06:55:29;;;;;;;26.35;11.98;;;;;;;17.42;67.54;100467.66;7400667;19;20077;-70
2023/10/03 06:57:58;;;;;;;23.02;11.25;;;;;;;17.46;67.64;100470.97;7398191;19;20465;-69
2023/10/03 07:00:26;;;;;;;27.02;12.63;;;;;;;17.50;67.31;100467.22;7400701;19;20017;-70
2023/10/03 07:03:04;;;;;;;26.00;12.90;;;;;;;17.54;67.25;100459.00;7399576;19;20506;-70
2023/10/03 07:05:34;;;;;;;26.42;12.45;;;;;;;17.58;67.46;100441.13;7400774;19;20090;-69
2023/10/03 07:08:02;;;;;;;29.25;12.18;;;;;;;17.65;67.35;100449.59;7398990;19;20025;-70
2023/10/03 07:10:31;;;;;;;25.40;12.38;;;;;;;17.71;67.09;100447.44;7399963;19;20014;-70
2023/10/03 07:13:01;;;;;;;28.48;12.75;;;;;;;17.77;67.00;100429.47;7400502;19;20020;-70
2023/10/03 07:15:30;;;;;;;27.02;12.18;;;;;;;17.85;66.90;100433.41;7400875;19;20011;-70
2023/10/03 07:18:01;;;;;;;27.02;13.55;;;;;;;17.92;66.79;100431.25;7398415;19;20078;-70
2023/10/03 07:20:29;;;;;;;27.60;13.18;;;;;;;17.99;66.61;100432.63;7400507;19;20035;-70
2023/10/03 07:22:59;;;;;;;26.75;13.05;;;;;;;18.05;65.97;100429.63;7400155;19;20020;-70
2023/10/03 07:25:28;;;;;;;27.70;12.60;;;;;;;18.14;66.04;100427.41;7399827;19;20041;-70
2023/10/03 07:27:57;;;;;;;26.58;12.18;;;;;;;18.23;65.89;100421.53;7396438;19;20107;-70
2023/10/03 07:30:25;;;;;;;26.40;14.02;;;;;;;18.31;65.52;100419.28;7397415;19;20374;-70
2023/10/03 07:32:54;;;;;;;28.45;14.27;;;;;;;18.40;65.56;100421.38;7399904;19;20011;-70
2023/10/03 07:35:25;;;;;;;27.15;14.13;;;;;;;18.50;65.23;100423.47;7397351;19;20014;-70
2023/10/03 07:37:54;;;;;;;30.35;13.23;;;;;;;18.58;65.00;100426.53;7398203;19;20456;-69
2023/10/03 07:40:24;;;;;;;30.80;13.77;;;;;;;18.65;64.91;100430.56;7397081;19;20023;-70
2023/10/03 07:42:52;;;;;;;30.65;13.30;;;;;;;18.72;64.80;100431.03;7397219;19;20010;-69
2023/10/03 07:45:21;;;;;;;29.85;13.15;;;;;;;18.78;64.47;100422.69;7397210;19;20031;-70
2023/10/03 07:47:50;;;;;;;27.77;13.05;;;;;;;18.84;64.26;100429.41;7398441;19;20073;-70
2023/10/03 07:50:18;;;;;;;25.15;13.18;;;;;;;18.88;63.97;100423.81;7399108;19;20015;-70
2023/10/03 07:52:49;;;;;;;27.90;13.05;;;;;;;18.96;64.07;100427.84;7397627;19;20375;-70
2023/10/03 07:55:19;;;;;;;26.25;13.23;;;;;;;19.02;63.51;100430.97;7398724;19;20011;-68
2023/10/03 07:57:47;;;;;;;31.17;13.48;;;;;;;19.10;63.53;100422.50;7397084;19;20018;-70
2023/10/03 08:00:20;;;;;;;26.33;13.00;;;;;;;19.17;63.26;100415.00;7396607;19;20023;-70
2023/10/03 08:02:49;;;;;;;32.40;13.15;;;;;;;19.21;63.53;100411.22;7399191;19;20078;-70
2023/10/03 08:05:19;;;;;;;27.83;13.60;;;;;;;19.25;63.17;100412.72;7398622;19;20021;-71
2023/10/03 08:07:50;;;;;;;31.95;14.05;;;;;;;19.29;62.83;100402.75;7397241;19;20010;-70
2023/10/03 08:10:19;;;;;;;30.02;13.32;;;;;;;19.30;62.87;100418.59;7396767;19;20018;-70
2023/10/03 08:12:52;;;;;;;30.65;13.95;;;;;;;19.35;63.20;100411.16;7398793;19;20010;-70
2023/10/03 08:15:21;;;;;;;25.52;13.38;;;;;;;19.39;62.79;100409.16;7398526;19;20014;-69
2023/10/03 08:17:53;;;;;;;28.40;13.27;;;;;;;19.46;63.00;100412.28;7396923;19;20082;-69
2023/10/03 08:20:23;;;;;;;27.77;13.73;;;;;;;19.52;62.68;100415.41;7397371;19;20097;-70
2023/10/03 08:22:54;;;;;;;26.08;12.93;;;;;;;19.60;62.46;100400.75;7396684;19;20018;-70
2023/10/03 08:25:24;;;;;;;27.20;13.50;;;;;;;19.70;62.51;100401.84;7398603;19;20010;-71
2023/10/03 08:27:55;;;;;;;25.83;13.55;;;;;;;19.81;62.81;100403.81;7396922;19;20011;-70
2023/10/03 08:30:30;;;;;;;30.77;13.60;;;;;;;19.90;62.08;100392.56;7394981;19;20112;-70
2023/10/03 08:33:00;;;;;;;29.10;13.68;;;;;;;20.01;62.15;100390.06;7399670;19;20011;-70
2023/10/03 08:35:38;;;;;;;29.52;13.38;;;;;;;20.13;62.06;100395.50;7398043;19;20037;-69
2023/10/03 08:38:13;;;;;;;29.55;12.77;;;;;;;20.25;62.01;100396.50;7396502;19;20014;-69
2023/10/03 08:40:42;;;;;;;26.15;13.18;;;;;;;20.35;61.40;100392.25;7395148;19;20373;-68
2023/10/03 08:43:12;;;;;;;25.65;12.80;;;;;;;20.46;61.42;100388.84;7397228;19;20023;-69
2023/10/03 08:45:43;;;;;;;29.52;13.43;;;;;;;20.56;61.39;100381.06;7397534;19;20469;-70
2023/10/03 08:48:12;;;;;;;34.28;13.15;;;;;;;20.66;60.69;100385.66;7396565;19;20030;-70
2023/10/03 08:50:46;;;;;;;29.42;12.95;;;;;;;20.76;60.57;100387.69;7395298;19;20028;-70
2023/10/03 08:53:26;;;;;;;26.95;12.13;;;;;;;20.88;60.82;100380.63;7398505;19;20007;-70
2023/10/03 08:55:57;;;;;;;28.58;12.68;;;;;;;20.98;60.44;100379.03;7399479;19;20483;-69
2023/10/03 08:58:28;;;;;;;27.10;12.90;;;;;;;21.09;60.17;100375.59;7394790;19;20022;-71
2023/10/03 09:01:02;;;;;;;28.45;12.98;;;;;;;21.20;60.09;100378.34;7396435;19;20025;-71
2023/10/03 09:03:46;;;;;;;26.40;12.57;;;;;;;21.34;59.92;100381.81;7394690;19;20070;-70
2023/10/03 09:06:19;;;;;;;;;;;;;;;21.45;58.85;100385.41;7396833;19;20129;-70
2023/10/03 09:09:07;;;;;;;28.42;12.10;;;;;;;21.57;58.51;100385.50;7394062;19;19925;-71
2023/10/03 09:11:37;;;;;;;28.95;12.13;;;;;;;21.69;58.35;100381.94;7397139;19;20137;-69
2023/10/03 09:14:06;;;;;;;25.35;13.30;;;;;;;21.82;58.16;100391.69;7396283;19;20031;-69
2023/10/03 09:16:41;;;;;;;25.83;11.45;;;;;;;21.90;56.88;100382.16;7394017;19;20011;-69
2023/10/03 09:19:11;;;;;;;22.40;10.85;;;;;;;22.01;56.85;100373.31;7393944;19;20073;-69
2023/10/03 09:21:40;;;;;;;21.77;11.18;;;;;;;22.11;56.31;100370.78;7394139;19;20081;-69
2023/10/03 09:24:15;;;;;;;23.13;11.70;;;;;;;22.22;55.36;100351.28;7395870;19;20066;-70
2023/10/03 09:26:51;;;;;;;26.98;11.23;;;;;;;22.33;55.56;100345.09;7395546;19;20489;-69
2023/10/03 09:29:33;;;;;;;21.83;10.90;;;;;;;22.45;55.35;100349.50;7394901;19;20101;-69
2023/10/03 09:32:16;;;;;;;23.02;11.65;;;;;;;22.56;54.51;100346.84;7395843;19;20050;-68
2023/10/03 09:34:46;;;;;;;23.83;11.25;;;;;;;22.69;54.52;100341.38;7396172;19;20018;-69
2023/10/03 09:37:17;;;;;;;25.58;11.20;;;;;;;22.78;53.70;100346.00;7394779;19;20018;-70
2023/10/03 09:39:57;;;;;;;23.42;11.45;;;;;;;22.88;53.54;100346.09;7395548;19;20018;-69
2023/10/03 09:42:27;;;;;;;23.27;11.23;;;;;;;23.00;53.07;100357.66;7393093;19;20489;-69
2023/10/03 09:44:57;;;;;;;26.88;11.07;;;;;;;23.10;52.73;100347.03;7395000;19;20014;-68
2023/10/03 09:47:29;;;;;;;21.20;10.55;;;;;;;23.17;52.07;100361.66;7394494;19;20030;-70
2023/10/03 09:50:05;;;;;;;23.80;11.23;;;;;;;23.25;51.62;100343.19;7392864;19;20006;-69
2023/10/03 09:52:35;;;;;;;23.55;11.23;;;;;;;23.35;51.90;100347.75;7394153;19;20007;-68
2023/10/03 09:55:17;;;;;;;22.80;10.50;;;;;;;23.42;51.33;100349.81;7394540;19;20015;-69
2023/10/03 09:57:51;;;;;;;23.05;10.65;;;;;;;23.48;50.36;100332.41;7392957;19;20014;-69
2023/10/03 10:00:38;;;;;;;23.58;10.90;;;;;;;23.58;51.09;100344.03;7394565;19;20014;-69
2023/10/03 10:03:09;;;;;;;24.02;10.75;;;;;;;23.67;49.88;100371.03;7393241;19;20083;-69
2023/10/03 10:05:39;;;;;;;23.90;11.00;;;;;;;23.73;49.61;100374.06;7392234;19;20510;-69
2023/10/03 10:08:15;;;;;;;26.95;10.45;;;;;;;23.82;49.33;100388.50;7392961;19;20423;-70
2023/10/03 10:11:07;;;;;;;18.70;9.52;;;;;;;23.89;47.27;100373.59;7393755;19;20371;-69
2023/10/03 10:13:37;;;;;;;20.95;9.65;;;;;;;23.98;48.61;100385.41;7394704;19;20081;-71
2023/10/03 10:16:07;;;;;;;23.02;9.20;;;;;;;24.04;47.95;100376.03;7396354;19;20011;-69
2023/10/03 10:19:03;;;;;;;27.73;9.45;;;;;;;24.10;46.87;100372.81;7400256;19;20024;-71
2023/10/03 10:21:37;;;;;;;18.52;8.48;;;;;;;24.14;47.01;100379.63;7402267;19;20006;-70
2023/10/03 10:24:24;;;;;;;21.50;8.73;;;;;;;24.17;47.14;100357.06;7401756;19;20031;-69
2023/10/03 10:26:59;;;;;;;19.48;9.25;;;;;;;24.20;46.83;100341.56;7398620;19;20028;-69
2023/10/03 10:29:33;;;;;;;20.23;10.80;;;;;;;24.21;47.77;100340.59;7401068;19;20003;-68
2023/10/03 10:32:18;;;;;;;16.95;8.40;;;;;;;24.23;47.11;100367.25;7402200;19;20014;-69
2023/10/03 10:34:49;;;;;;;22.98;9.85;;;;;;;24.23;46.87;100364.59;7402004;19;20037;-70
2023/10/03 10:37:18;;;;;;;17.25;8.65;;;;;;;24.25;47.45;100349.19;7398959;19;20014;-69
2023/10/03 10:40:21;;;;;;;20.88;8.73;;;;;;;24.23;46.94;100354.69;7398525;19;20481;-69
2023/10/03 10:43:16;;;;;;;21.17;10.05;;;;;;;24.23;46.54;100343.97;7401018;19;20484;-70
2023/10/03 10:45:49;;;;;;;19.23;9.23;;;;;;;24.23;47.63;100343.13;7401545;19;20023;-69
2023/10/03 10:48:22;;;;;;;18.52;9.82;;;;;;;24.24;47.88;100350.19;7399559;19;20010;-70
2023/10/03 10:51:10;;;;;;;17.35;9.02;;;;;;;24.24;47.34;100364.44;7397705;19;20485;-68
2023/10/03 10:53:40;;;;;;;20.50;9.18;;;;;;;24.26;47.40;100371.50;7397397;19;20033;-69
2023/10/03 10:56:11;;;;;;;16.48;8.82;;;;;;;24.23;47.75;100370.78;7396675;19;20010;-70
2023/10/03 10:59:11;;;;;;;18.23;9.18;;;;;;;24.24;47.56;100377.00;7397459;19;20026;-70
2023/10/03 11:01:45;;;;;;;19.88;9.23;;;;;;;24.26;47.95;100366.16;7399377;19;20025;-70
2023/10/03 11:04:25;;;;;;;21.90;9.63;;;;;;;24.26;47.28;100366.16;7398061;19;20033;-70
2023/10/03 11:06:53;;;;;;;19.27;9.93;;;;;;;24.24;48.10;100359.09;7400216;19;20025;-69
2023/10/03 11:09:23;;;;;;;20.83;9.40;;;;;;;24.21;47.74;100378.13;7397082;19;20015;-69
2023/10/03 11:11:52;;;;;;;18.30;9.32;;;;;;;24.18;48.14;100364.97;7399551;19;20014;-70
2023/10/03 11:14:31;;;;;;;19.02;9.50;;;;;;;24.13;47.36;100347.59;7399559;19;20027;-70
2023/10/03 11:17:00;;;;;;;21.23;9.88;;;;;;;24.08;47.96;100353.34;7396384;19;20010;-70
2023/10/03 11:19:30;;;;;;;19.88;9.40;;;;;;;24.08;48.28;100372.94;7398828;19;20037;-70
2023/10/03 11:21:59;;;;;;;23.55;10.32;;;;;;;24.06;48.21;100372.22;7399523;19;20007;-68
2023/10/03 11:24:29;;;;;;;23.50;9.82;;;;;;;24.03;48.10;100379.66;7399129;19;20010;-70
2023/10/03 11:26:58;;;;;;;18.17;8.88;;;;;;;23.98;48.29;100377.38;7397657;19;20018;-73
2023/10/03 11:29:46;;;;;;;21.73;9.23;;;;;;;23.96;48.15;100390.06;7398449;19;20010;-68
2023/10/03 11:32:25;;;;;;;19.27;9.43;;;;;;;23.91;48.29;100413.72;7398879;19;20010;-72
2023/10/03 11:34:54;;;;;;;20.30;10.30;;;;;;;23.89;48.47;100395.03;7396320;19;20377;-70